Time,TemperatureF,DewpointF,PressureIn,WindDirection,WindDirectionDegrees,WindSpeedMPH,WindSpeedGustMPH,Humidity,HourlyPrecipIn,Conditions,Clouds,dailyrainin,SoftwareType,DateUTC
2013-11-02 00:00:00,45.0,-99.9,-100.00,WNW,292,8.0,11.0,-999,0.00,,,0.01,,2013-11-02 05:00:00,
2013-11-02 00:52:00,45.0,-99.9,-100.00,WNW,292,8.0,11.0,-999,0.00,,,0.01,,2013-11-02 05:52:00,
2013-11-02 01:00:00,45.0,-99.9,-100.00,WNW,296,7.0,10.0,-999,0.00,,,0.01,,2013-11-02 06:00:00,
2013-11-02 01:52:00,45.0,-99.9,-100.00,WNW,296,7.0,10.0,-999,0.00,,,0.01,,2013-11-02 06:52:00,
2013-11-02 02:00:00,44.0,-99.9,-100.00,WNW,297,8.0,10.0,-999,0.00,,,0.01,,2013-11-02 07:00:00,
2013-11-02 02:52:00,44.0,-99.9,-100.00,WNW,297,8.0,10.0,-999,0.00,,,0.01,,2013-11-02 07:52:00,
2013-11-02 03:00:00,43.0,-99.9,-100.00,NW,307,6.0,9.0,-999,0.00,,,0.01,,2013-11-02 08:00:00,
2013-11-02 03:52:00,43.0,-99.9,-100.00,NW,307,6.0,9.0,-999,0.00,,,0.01,,2013-11-02 08:52:00,
2013-11-02 04:00:00,42.0,-99.9,-100.00,NW,324,6.0,9.0,-999,0.00,,,0.01,,2013-11-02 09:00:00,
2013-11-02 04:53:00,42.0,-99.9,-100.00,NW,324,6.0,9.0,-999,0.00,,,0.01,,2013-11-02 09:53:00,
2013-11-02 05:00:00,41.0,-99.9,-100.00,NW,306,7.0,10.0,-999,0.00,,,0.01,,2013-11-02 10:00:00,
2013-11-02 05:53:00,41.0,-99.9,-100.00,NW,306,7.0,10.0,-999,0.00,,,0.01,,2013-11-02 10:53:00,
2013-11-02 06:00:00,40.0,-99.9,-100.00,NW,310,5.0,9.0,-999,0.00,,,0.01,,2013-11-02 11:00:00,
2013-11-02 06:52:00,40.0,-99.9,-100.00,NW,310,5.0,9.0,-999,0.00,,,0.01,,2013-11-02 11:52:00,
2013-11-02 07:00:00,40.0,-99.9,-100.00,WNW,301,7.0,10.0,-999,0.00,,,0.01,,2013-11-02 12:00:00,
2013-11-02 07:52:00,40.0,-99.9,-100.00,WNW,301,7.0,10.0,-999,0.00,,,0.01,,2013-11-02 12:52:00,
2013-11-02 08:00:00,39.0,-99.9,-100.00,WNW,295,8.0,12.0,-999,0.00,,,0.01,,2013-11-02 13:00:00,
2013-11-02 08:52:00,39.0,-99.9,-100.00,WNW,295,8.0,12.0,-999,0.00,,,0.01,,2013-11-02 13:52:00,
2013-11-02 09:00:00,41.0,-99.9,-100.00,WNW,301,8.0,11.0,-999,0.00,,,0.01,,2013-11-02 14:00:00,
2013-11-02 09:52:00,41.0,-99.9,-100.00,WNW,301,8.0,11.0,-999,0.00,,,0.01,,2013-11-02 14:52:00,
2013-11-02 10:00:00,42.0,-99.9,-100.00,NW,309,10.0,15.0,-999,0.00,,,0.01,,2013-11-02 15:00:00,
2013-11-02 10:53:00,42.0,-99.9,-100.00,NW,309,10.0,15.0,-999,0.00,,,0.01,,2013-11-02 15:53:00,
2013-11-02 11:00:00,43.0,-99.9,-100.00,NW,326,12.0,28.0,-999,0.00,,,0.01,,2013-11-02 16:00:00,
2013-11-02 11:54:00,43.0,-99.9,-100.00,NW,326,12.0,28.0,-999,0.00,,,0.01,,2013-11-02 16:54:00,
2013-11-02 12:00:00,44.0,-99.9,-100.00,NW,322,12.0,19.0,-999,0.00,,,0.01,,2013-11-02 17:00:00,
2013-11-02 12:53:00,44.0,-99.9,-100.00,NW,322,12.0,19.0,-999,0.00,,,0.01,,2013-11-02 17:53:00,
2013-11-02 13:00:00,47.0,-99.9,-100.00,NNW,327,11.0,19.0,-999,0.00,,,0.01,,2013-11-02 18:00:00,
2013-11-02 13:53:00,47.0,-99.9,-100.00,NNW,327,11.0,19.0,-999,0.00,,,0.01,,2013-11-02 18:53:00,
2013-11-02 14:00:00,48.0,-99.9,-100.00,NNW,330,9.0,15.0,-999,0.00,,,0.01,,2013-11-02 19:00:00,
2013-11-02 14:52:00,48.0,-99.9,-100.00,NNW,330,9.0,15.0,-999,0.00,,,0.01,,2013-11-02 19:52:00,
2013-11-02 15:00:00,49.0,-99.9,-100.00,NNW,330,11.0,17.0,-999,0.00,,,0.01,,2013-11-02 20:00:00,
2013-11-02 15:53:00,49.0,-99.9,-100.00,NNW,330,11.0,17.0,-999,0.00,,,0.01,,2013-11-02 20:53:00,
2013-11-02 16:00:00,48.0,-99.9,-100.00,NNW,331,7.0,12.0,-999,0.00,,,0.01,,2013-11-02 21:00:00,
2013-11-02 16:54:00,48.0,-99.9,-100.00,NNW,331,7.0,12.0,-999,0.00,,,0.01,,2013-11-02 21:54:00,
2013-11-02 17:00:00,49.0,-99.9,-100.00,NNW,332,6.0,12.0,-999,0.00,,,0.01,,2013-11-02 22:00:00,
2013-11-02 17:54:00,49.0,-99.9,-100.00,NNW,332,6.0,12.0,-999,0.00,,,0.01,,2013-11-02 22:54:00,
2013-11-02 18:00:00,46.0,-99.9,-100.00,NNW,348,2.0,5.0,-999,0.00,,,0.01,,2013-11-02 23:00:00,
2013-11-02 18:52:00,46.0,-99.9,-100.00,NNW,348,2.0,5.0,-999,0.00,,,0.01,,2013-11-02 23:52:00,
2013-11-02 19:00:00,46.0,-99.9,-100.00,NW,308,4.0,5.0,-999,0.00,,,0.00,,2013-11-03 00:00:00,
2013-11-02 19:52:00,46.0,-99.9,-100.00,NW,308,4.0,5.0,-999,0.00,,,0.00,,2013-11-03 00:52:00,
2013-11-02 20:00:00,45.0,-99.9,-100.00,NW,307,5.0,10.0,-999,0.00,,,0.00,,2013-11-03 01:00:00,
2013-11-02 20:52:00,45.0,-99.9,-100.00,NW,307,5.0,10.0,-999,0.00,,,0.00,,2013-11-03 01:52:00,
2013-11-02 21:00:00,45.0,-99.9,-100.00,NW,311,7.0,10.0,-999,0.00,,,0.00,,2013-11-03 02:00:00,
2013-11-02 21:52:00,45.0,-99.9,-100.00,NW,311,7.0,10.0,-999,0.00,,,0.00,,2013-11-03 02:52:00,
2013-11-02 22:00:00,-999.0,-99.9,-100.00,NW,320,9.0,14.0,-999,-99.99,,,-99.99,,2013-11-03 03:00:00,
2013-11-02 22:54:00,44.0,-99.9,-100.00,NW,320,9.0,14.0,-999,0.00,,,0.00,,2013-11-03 03:54:00,
2013-11-02 23:00:00,42.0,-99.9,-100.00,NW,320,4.0,8.0,-999,0.00,,,0.00,,2013-11-03 04:00:00,
2013-11-02 23:53:00,42.0,-99.9,-100.00,NW,320,4.0,8.0,-999,0.00,,,0.00,,2013-11-03 04:53:00,